sensor_id;sensor_type;location;lat;lon;timestamp;pressure;altitude;pressure_sealevel;temperature;humidity
28354;BME280;15603;50.878;8.036;2023-08-17T00:01:59;147177.88;;;16.53;100.00
28354;BME280;15603;50.878;8.036;2023-08-17T00:04:26;147185.22;;;16.56;100.00
28354;BME280;15603;50.878;8.036;2023-08-17T00:06:53;147149.81;;;16.41;100.00
28354;BME280;15603;50.878;8.036;2023-08-17T00:09:20;147168.13;;;16.49;100.00
28354;BME280;15603;50.878;8.036;2023-08-17T00:11:49;147185.22;;;16.56;100.00
28354;BME280;15603;50.878;8.036;2023-08-17T00:14:16;147185.22;;;16.56;100.00
28354;BME280;15603;50.878;8.036;2023-08-17T00:16:43;147143.75;;;16.39;100.00
28354;BME280;15603;50.878;8.036;2023-08-17T00:19:10;147175.47;;;16.52;100.00
28354;BME280;15603;50.878;8.036;2023-08-17T00:21:37;147175.47;;;16.52;100.00
28354;BME280;15603;50.878;8.036;2023-08-17T00:24:04;147119.34;;;16.28;100.00
28354;BME280;15603;50.878;8.036;2023-08-17T00:26:31;147148.63;;;16.41;100.00
28354;BME280;15603;50.878;8.036;2023-08-17T00:28:58;147144.94;;;16.39;100.00
28354;BME280;15603;50.878;8.036;2023-08-17T00:31:26;147158.38;;;16.45;100.00
28354;BME280;15603;50.878;8.036;2023-08-17T00:33:53;147119.34;;;16.28;100.00
28354;BME280;15603;50.878;8.036;2023-08-17T00:36:20;147103.47;;;16.22;100.00
28354;BME280;15603;50.878;8.036;2023-08-17T00:38:47;147086.38;;;16.15;100.00
28354;BME280;15603;50.878;8.036;2023-08-17T00:41:14;146997.34;;;15.77;100.00
28354;BME280;15603;50.878;8.036;2023-08-17T00:43:41;147033.94;;;15.93;100.00
28354;BME280;15603;50.878;8.036;2023-08-17T00:46:08;147055.91;;;16.02;100.00
28354;BME280;15603;50.878;8.036;2023-08-17T00:48:36;147051.03;;;16.00;100.00
28354;BME280;15603;50.878;8.036;2023-08-17T00:51:03;147014.44;;;15.84;100.00
28354;BME280;15603;50.878;8.036;2023-08-17T00:53:31;146961.91;;;15.62;100.00
28354;BME280;15603;50.878;8.036;2023-08-17T00:56:01;146972.91;;;15.67;100.00
28354;BME280;15603;50.878;8.036;2023-08-17T00:58:28;147009.56;;;15.82;100.00
28354;BME280;15603;50.878;8.036;2023-08-17T01:00:55;146996.13;;;15.77;100.00
28354;BME280;15603;50.878;8.036;2023-08-17T01:03:23;146987.59;;;15.73;100.00
28354;BME280;15603;50.878;8.036;2023-08-17T01:05:51;146972.91;;;15.67;100.00
28354;BME280;15603;50.878;8.036;2023-08-17T01:08:18;146936.34;;;15.51;100.00
28354;BME280;15603;50.878;8.036;2023-08-17T01:14:04;146944.88;;;15.55;100.00
28354;BME280;15603;50.878;8.036;2023-08-17T01:19:12;146941.22;;;15.54;100.00
28354;BME280;15603;50.878;8.036;2023-08-17T01:21:49;146918.03;;;15.44;100.00
28354;BME280;15603;50.878;8.036;2023-08-17T01:24:17;146924.13;;;15.46;100.00
28354;BME280;15603;50.878;8.036;2023-08-17T01:26:44;146915.59;;;15.43;100.00
28354;BME280;15603;50.878;8.036;2023-08-17T01:29:11;146888.75;;;15.31;100.00
28354;BME280;15603;50.878;8.036;2023-08-17T01:31:47;146870.47;;;15.24;100.00
28354;BME280;15603;50.878;8.036;2023-08-17T01:34:22;146831.47;;;15.07;100.00
28354;BME280;15603;50.878;8.036;2023-08-17T01:36:53;146805.84;;;14.97;100.00
28354;BME280;15603;50.878;8.036;2023-08-17T01:39:27;146848.56;;;15.15;100.00
28354;BME280;15603;50.878;8.036;2023-08-17T01:41:56;146847.31;;;15.14;100.00
28354;BME280;15603;50.878;8.036;2023-08-17T01:44:25;146802.19;;;14.95;100.00
28354;BME280;15603;50.878;8.036;2023-08-17T01:46:54;146864.38;;;15.21;100.00
28354;BME280;15603;50.878;8.036;2023-08-17T01:49:22;146863.19;;;15.21;100.00
28354;BME280;15603;50.878;8.036;2023-08-17T01:51:49;146846.09;;;15.14;100.00
28354;BME280;15603;50.878;8.036;2023-08-17T01:54:16;146838.75;;;15.10;100.00
28354;BME280;15603;50.878;8.036;2023-08-17T01:56:44;146819.25;;;15.02;100.00
28354;BME280;15603;50.878;8.036;2023-08-17T01:59:11;146821.72;;;15.03;100.00
28354;BME280;15603;50.878;8.036;2023-08-17T02:01:39;146776.63;;;14.84;100.00
28354;BME280;15603;50.878;8.036;2023-08-17T02:04:07;146751.00;;;14.73;100.00
28354;BME280;15603;50.878;8.036;2023-08-17T02:06:34;146843.63;;;15.12;100.00
28354;BME280;15603;50.878;8.036;2023-08-17T02:09:01;146836.34;;;15.09;100.00
28354;BME280;15603;50.878;8.036;2023-08-17T02:11:28;146765.63;;;14.80;100.00
28354;BME280;15603;50.878;8.036;2023-08-17T02:13:55;146749.78;;;14.73;100.00
28354;BME280;15603;50.878;8.036;2023-08-17T02:16:22;146768.06;;;14.81;100.00
28354;BME280;15603;50.878;8.036;2023-08-17T02:18:49;146785.16;;;14.88;100.00
28354;BME280;15603;50.878;8.036;2023-08-17T02:21:17;146799.78;;;14.94;100.00
28354;BME280;15603;50.878;8.036;2023-08-17T02:23:44;146811.97;;;14.99;100.00
28354;BME280;15603;50.878;8.036;2023-08-17T02:26:11;146803.44;;;14.96;100.00
28354;BME280;15603;50.878;8.036;2023-08-17T02:28:38;146816.84;;;15.01;100.00
28354;BME280;15603;50.878;8.036;2023-08-17T02:31:06;146860.72;;;15.20;100.00
28354;BME280;15603;50.878;8.036;2023-08-17T02:33:33;146816.84;;;15.01;100.00
28354;BME280;15603;50.878;8.036;2023-08-17T02:36:00;146876.59;;;15.26;100.00
28354;BME280;15603;50.878;8.036;2023-08-17T02:38:28;146892.41;;;15.33;100.00
28354;BME280;15603;50.878;8.036;2023-08-17T02:40:55;146887.53;;;15.31;100.00
28354;BME280;15603;50.878;8.036;2023-08-17T02:43:22;146892.41;;;15.33;100.00
28354;BME280;15603;50.878;8.036;2023-08-17T02:45:50;146759.53;;;14.77;100.00
28354;BME280;15603;50.878;8.036;2023-08-17T02:48:39;146881.47;;;15.28;100.00
28354;BME280;15603;50.878;8.036;2023-08-17T02:51:06;146894.88;;;15.34;100.00
28354;BME280;15603;50.878;8.036;2023-08-17T02:53:33;146870.47;;;15.24;100.00
28354;BME280;15603;50.878;8.036;2023-08-17T02:56:00;146915.59;;;15.43;100.00
28354;BME280;15603;50.878;8.036;2023-08-17T02:58:27;146898.50;;;15.36;100.00
28354;BME280;15603;50.878;8.036;2023-08-17T03:00:55;146904.63;;;15.38;100.00
28354;BME280;15603;50.878;8.036;2023-08-17T03:03:22;146836.34;;;15.09;100.00
28354;BME280;15603;50.878;8.036;2023-08-17T03:05:49;146876.59;;;15.26;100.00
28354;BME280;15603;50.878;8.036;2023-08-17T03:08:16;146857.06;;;15.18;100.00
28354;BME280;15603;50.878;8.036;2023-08-17T03:10:43;146855.84;;;15.18;100.00
28354;BME280;15603;50.878;8.036;2023-08-17T03:13:10;146871.72;;;15.24;100.00
28354;BME280;15603;50.878;8.036;2023-08-17T03:15:37;146868.03;;;15.23;100.00
28354;BME280;15603;50.878;8.036;2023-08-17T03:18:07;146838.75;;;15.10;100.00
28354;BME280;15603;50.878;8.036;2023-08-17T03:20:34;146855.84;;;15.18;100.00
28354;BME280;15603;50.878;8.036;2023-08-17T03:23:02;146843.63;;;15.12;100.00
28354;BME280;15603;50.878;8.036;2023-08-17T03:25:33;146853.44;;;15.17;100.00
28354;BME280;15603;50.878;8.036;2023-08-17T03:28:00;146869.25;;;15.23;100.00
28354;BME280;15603;50.878;8.036;2023-08-17T03:30:28;146852.16;;;15.16;100.00
28354;BME280;15603;50.878;8.036;2023-08-17T03:32:55;146886.34;;;15.30;100.00
28354;BME280;15603;50.878;8.036;2023-08-17T03:35:22;146877.78;;;15.27;100.00
28354;BME280;15603;50.878;8.036;2023-08-17T03:37:49;146877.78;;;15.27;100.00
28354;BME280;15603;50.878;8.036;2023-08-17T03:40:16;146822.94;;;15.04;100.00
28354;BME280;15603;50.878;8.036;2023-08-17T03:42:43;146879.00;;;15.27;100.00
28354;BME280;15603;50.878;8.036;2023-08-17T03:45:10;146843.63;;;15.12;100.00
28354;BME280;15603;50.878;8.036;2023-08-17T03:47:37;146835.13;;;15.09;100.00
28354;BME280;15603;50.878;8.036;2023-08-17T03:50:05;146866.84;;;15.22;100.00
28354;BME280;15603;50.878;8.036;2023-08-17T03:52:32;146913.16;;;15.42;100.00
28354;BME280;15603;50.878;8.036;2023-08-17T03:54:59;146900.97;;;15.37;100.00
28354;BME280;15603;50.878;8.036;2023-08-17T03:57:26;146899.75;;;15.36;100.00
28354;BME280;15603;50.878;8.036;2023-08-17T03:59:54;146887.53;;;15.31;100.00
28354;BME280;15603;50.878;8.036;2023-08-17T04:02:21;146887.53;;;15.31;100.00
28354;BME280;15603;50.878;8.036;2023-08-17T04:04:48;146897.28;;;15.35;100.00
28354;BME280;15603;50.878;8.036;2023-08-17T04:07:22;146904.63;;;15.38;100.00
28354;BME280;15603;50.878;8.036;2023-08-17T04:09:52;146897.28;;;15.35;100.00
28354;BME280;15603;50.878;8.036;2023-08-17T04:12:19;146894.88;;;15.34;100.00
28354;BME280;15603;50.878;8.036;2023-08-17T04:14:46;146787.56;;;14.89;100.00
28354;BME280;15603;50.878;8.036;2023-08-17T04:17:13;146858.31;;;15.19;100.00
28354;BME280;15603;50.878;8.036;2023-08-17T04:19:41;146900.97;;;15.37;100.00
28354;BME280;15603;50.878;8.036;2023-08-17T04:22:08;146890.00;;;15.32;100.00
28354;BME280;15603;50.878;8.036;2023-08-17T04:24:41;146880.22;;;15.28;100.00
28354;BME280;15603;50.878;8.036;2023-08-17T04:27:08;146886.34;;;15.30;100.00
28354;BME280;15603;50.878;8.036;2023-08-17T04:29:36;146896.09;;;15.35;100.00
28354;BME280;15603;50.878;8.036;2023-08-17T04:32:03;146858.31;;;15.19;100.00
28354;BME280;15603;50.878;8.036;2023-08-17T04:34:30;146897.28;;;15.35;100.00
28354;BME280;15603;50.878;8.036;2023-08-17T04:36:57;146899.75;;;15.36;100.00
28354;BME280;15603;50.878;8.036;2023-08-17T04:39:24;146848.56;;;15.15;100.00
28354;BME280;15603;50.878;8.036;2023-08-17T04:41:52;146903.41;;;15.38;100.00
28354;BME280;15603;50.878;8.036;2023-08-17T04:44:25;146919.25;;;15.44;100.00
28354;BME280;15603;50.878;8.036;2023-08-17T04:46:52;146926.59;;;15.47;100.00
28354;BME280;15603;50.878;8.036;2023-08-17T04:49:20;146860.72;;;15.20;100.00
28354;BME280;15603;50.878;8.036;2023-08-17T04:51:47;146904.63;;;15.38;100.00
28354;BME280;15603;50.878;8.036;2023-08-17T04:54:14;146821.72;;;15.03;100.00
28354;BME280;15603;50.878;8.036;2023-08-17T04:56:41;146814.41;;;15.00;100.00
28354;BME280;15603;50.878;8.036;2023-08-17T04:59:10;146938.75;;;15.52;100.00
28354;BME280;15603;50.878;8.036;2023-08-17T05:01:38;146868.03;;;15.23;100.00
28354;BME280;15603;50.878;8.036;2023-08-17T05:04:08;146941.22;;;15.54;100.00
28354;BME280;15603;50.878;8.036;2023-08-17T05:06:35;146926.59;;;15.47;100.00
28354;BME280;15603;50.878;8.036;2023-08-17T05:09:05;146969.25;;;15.65;100.00
28354;BME280;15603;50.878;8.036;2023-08-17T05:11:34;146887.53;;;15.31;100.00
28354;BME280;15603;50.878;8.036;2023-08-17T05:14:01;146929.00;;;15.48;100.00
28354;BME280;15603;50.878;8.036;2023-08-17T05:16:28;146953.38;;;15.59;100.00
28354;BME280;15603;50.878;8.036;2023-08-17T05:18:56;146929.00;;;15.48;100.00
28354;BME280;15603;50.878;8.036;2023-08-17T05:21:25;146972.91;;;15.67;100.00
28354;BME280;15603;50.878;8.036;2023-08-17T05:23:53;147002.22;;;15.79;100.00
28354;BME280;15603;50.878;8.036;2023-08-17T05:26:20;147019.31;;;15.86;100.00
28354;BME280;15603;50.878;8.036;2023-08-17T05:28:47;147029.06;;;15.90;100.00
28354;BME280;15603;50.878;8.036;2023-08-17T05:31:14;147046.16;;;15.98;100.00
28354;BME280;15603;50.878;8.036;2023-08-17T05:33:45;147053.44;;;16.01;100.00
28354;BME280;15603;50.878;8.036;2023-08-17T05:36:14;147014.44;;;15.84;100.00
28354;BME280;15603;50.878;8.036;2023-08-17T05:38:41;147085.16;;;16.14;100.00
28354;BME280;15603;50.878;8.036;2023-08-17T05:41:08;147070.53;;;16.08;100.00
28354;BME280;15603;50.878;8.036;2023-08-17T05:43:35;147116.88;;;16.27;100.00
28354;BME280;15603;50.878;8.036;2023-08-17T05:46:02;147120.56;;;16.29;100.00
28354;BME280;15603;50.878;8.036;2023-08-17T05:48:30;147124.22;;;16.31;100.00
28354;BME280;15603;50.878;8.036;2023-08-17T05:50:57;147168.13;;;16.49;100.00
28354;BME280;15603;50.878;8.036;2023-08-17T05:53:24;147182.81;;;16.55;100.00
28354;BME280;15603;50.878;8.036;2023-08-17T05:55:51;147194.97;;;16.60;100.00
28354;BME280;15603;50.878;8.036;2023-08-17T05:58:18;147149.81;;;16.41;100.00
28354;BME280;15603;50.878;8.036;2023-08-17T06:00:45;147185.22;;;16.56;100.00
28354;BME280;15603;50.878;8.036;2023-08-17T06:03:13;147216.97;;;16.69;100.00
28354;BME280;15603;50.878;8.036;2023-08-17T06:05:40;147238.94;;;16.79;100.00
28354;BME280;15603;50.878;8.036;2023-08-17T06:08:07;147251.16;;;16.84;100.00
28354;BME280;15603;50.878;8.036;2023-08-17T06:10:34;147246.28;;;16.82;100.00
28354;BME280;15603;50.878;8.036;2023-08-17T06:13:02;147220.63;;;16.71;100.00
28354;BME280;15603;50.878;8.036;2023-08-17T06:15:29;147295.13;;;17.02;100.00
28354;BME280;15603;50.878;8.036;2023-08-17T06:17:56;147246.28;;;16.82;100.00
28354;BME280;15603;50.878;8.036;2023-08-17T06:20:23;147297.56;;;17.03;100.00
28354;BME280;15603;50.878;8.036;2023-08-17T06:22:50;147315.88;;;17.11;100.00
28354;BME280;15603;50.878;8.036;2023-08-17T06:25:18;147329.31;;;17.17;100.00
28354;BME280;15603;50.878;8.036;2023-08-17T06:27:48;147274.38;;;16.94;100.00
28354;BME280;15603;50.878;8.036;2023-08-17T06:30:15;147268.25;;;16.91;100.00
28354;BME280;15603;50.878;8.036;2023-08-17T06:32:42;147295.13;;;17.02;100.00
28354;BME280;15603;50.878;8.036;2023-08-17T06:35:10;147259.72;;;16.87;100.00
28354;BME280;15603;50.878;8.036;2023-08-17T06:37:37;147290.22;;;17.00;100.00
28354;BME280;15603;50.878;8.036;2023-08-17T06:40:05;147300.00;;;17.04;100.00
28354;BME280;15603;50.878;8.036;2023-08-17T06:42:32;147278.00;;;16.95;100.00
28354;BME280;15603;50.878;8.036;2023-08-17T06:45:00;147312.22;;;17.10;100.00
28354;BME280;15603;50.878;8.036;2023-08-17T06:47:27;147326.84;;;17.16;100.00
28354;BME280;15603;50.878;8.036;2023-08-17T06:49:55;147243.81;;;16.81;100.00
28354;BME280;15603;50.878;8.036;2023-08-17T06:52:22;147348.84;;;17.25;100.00
28354;BME280;15603;50.878;8.036;2023-08-17T06:54:49;147402.56;;;17.48;100.00
28354;BME280;15603;50.878;8.036;2023-08-17T06:57:16;147423.31;;;17.56;100.00
28354;BME280;15603;50.878;8.036;2023-08-17T06:59:43;147452.59;;;17.69;100.00
28354;BME280;15603;50.878;8.036;2023-08-17T07:02:12;147363.47;;;17.31;100.00
28354;BME280;15603;50.878;8.036;2023-08-17T07:04:40;147484.34;;;17.82;100.00
28354;BME280;15603;50.878;8.036;2023-08-17T07:07:07;147534.47;;;18.03;100.00
28354;BME280;15603;50.878;8.036;2023-08-17T07:09:34;147558.94;;;18.13;100.00
28354;BME280;15603;50.878;8.036;2023-08-17T07:12:01;147497.84;;;17.88;100.00
28354;BME280;15603;50.878;8.036;2023-08-17T07:14:28;147549.16;;;18.09;100.00
28354;BME280;15603;50.878;8.036;2023-08-17T07:16:55;147552.78;;;18.11;100.00
28354;BME280;15603;50.878;8.036;2023-08-17T07:19:22;147478.25;;;17.79;100.00
28354;BME280;15603;50.878;8.036;2023-08-17T07:22:09;147499.09;;;17.88;100.00
28354;BME280;15603;50.878;8.036;2023-08-17T07:24:36;147463.63;;;17.73;100.00
28354;BME280;15603;50.878;8.036;2023-08-17T07:27:04;147502.72;;;17.90;100.00
28354;BME280;15603;50.878;8.036;2023-08-17T07:29:32;147551.59;;;18.10;100.00
28354;BME280;15603;50.878;8.036;2023-08-17T07:31:59;147441.63;;;17.64;100.00
28354;BME280;15603;50.878;8.036;2023-08-17T07:34:28;147494.22;;;17.86;100.00
28354;BME280;15603;50.878;8.036;2023-08-17T07:36:58;147532.06;;;18.02;100.00
28354;BME280;15603;50.878;8.036;2023-08-17T07:39:25;147560.16;;;18.14;100.00
28354;BME280;15603;50.878;8.036;2023-08-17T07:41:52;147604.13;;;18.32;100.00
28354;BME280;15603;50.878;8.036;2023-08-17T07:44:19;147632.22;;;18.44;100.00
28354;BME280;15603;50.878;8.036;2023-08-17T07:46:46;147646.88;;;18.50;100.00
28354;BME280;15603;50.878;8.036;2023-08-17T07:49:13;147707.97;;;18.76;100.00
28354;BME280;15603;50.878;8.036;2023-08-17T07:51:56;147693.31;;;18.70;100.00
28354;BME280;15603;50.878;8.036;2023-08-17T07:54:23;147685.97;;;18.67;100.00
28354;BME280;15603;50.878;8.036;2023-08-17T07:56:50;147638.31;;;18.47;100.00
28354;BME280;15603;50.878;8.036;2023-08-17T07:59:17;147595.59;;;18.29;100.00
28354;BME280;15603;50.878;8.036;2023-08-17T08:01:44;147690.84;;;18.69;100.00
28354;BME280;15603;50.878;8.036;2023-08-17T08:04:11;147707.97;;;18.76;100.00
28354;BME280;15603;50.878;8.036;2023-08-17T08:06:39;147749.56;;;18.93;100.00
28354;BME280;15603;50.878;8.036;2023-08-17T08:09:06;147766.69;;;19.00;100.00
28354;BME280;15603;50.878;8.036;2023-08-17T08:11:34;147748.34;;;18.93;100.00
28354;BME280;15603;50.878;8.036;2023-08-17T08:14:01;147799.66;;;19.14;100.00
28354;BME280;15603;50.878;8.036;2023-08-17T08:16:28;147844.91;;;19.33;100.00
28354;BME280;15603;50.878;8.036;2023-08-17T08:18:58;147888.94;;;19.52;100.00
28354;BME280;15603;50.878;8.036;2023-08-17T08:21:25;147832.66;;;19.28;100.00
28354;BME280;15603;50.878;8.036;2023-08-17T08:23:54;147920.72;;;19.65;100.00
28354;BME280;15603;50.878;8.036;2023-08-17T08:26:21;147959.88;;;19.81;100.00
28354;BME280;15603;50.878;8.036;2023-08-17T08:28:48;147862.03;;;19.40;100.00
28354;BME280;15603;50.878;8.036;2023-08-17T08:31:15;147932.91;;;19.70;100.00
28354;BME280;15603;50.878;8.036;2023-08-17T08:33:43;147876.69;;;19.47;100.00
28354;BME280;15603;50.878;8.036;2023-08-17T08:36:10;147893.81;;;19.54;100.00
28354;BME280;15603;50.878;8.036;2023-08-17T08:38:37;147908.47;;;19.60;100.00
28354;BME280;15603;50.878;8.036;2023-08-17T08:41:05;147945.22;;;19.75;100.00
28354;BME280;15603;50.878;8.036;2023-08-17T08:43:35;147951.31;;;19.78;100.00
28354;BME280;15603;50.878;8.036;2023-08-17T08:46:02;147940.31;;;19.73;100.00
28354;BME280;15603;50.878;8.036;2023-08-17T08:48:29;148016.09;;;20.05;99.95
28354;BME280;15603;50.878;8.036;2023-08-17T08:51:00;148073.63;;;20.29;100.00
28354;BME280;15603;50.878;8.036;2023-08-17T08:53:31;148136.00;;;20.55;100.00
28354;BME280;15603;50.878;8.036;2023-08-17T08:56:03;148143.31;;;20.58;100.00
28354;BME280;15603;50.878;8.036;2023-08-17T08:58:33;148112.72;;;20.46;99.42
28354;BME280;15603;50.878;8.036;2023-08-17T09:01:00;148136.00;;;20.55;95.63
28354;BME280;15603;50.878;8.036;2023-08-17T09:03:29;148170.28;;;20.70;97.06
28354;BME280;15603;50.878;8.036;2023-08-17T09:05:59;148127.44;;;20.52;96.64
28354;BME280;15603;50.878;8.036;2023-08-17T09:08:28;148105.41;;;20.43;96.27
28354;BME280;15603;50.878;8.036;2023-08-17T09:10:56;148192.31;;;20.79;95.91
28354;BME280;15603;50.878;8.036;2023-08-17T09:13:23;148231.44;;;20.95;95.11
28354;BME280;15603;50.878;8.036;2023-08-17T09:15:50;148334.28;;;21.38;94.09
28354;BME280;15603;50.878;8.036;2023-08-17T09:18:19;148302.44;;;21.25;92.99
28354;BME280;15603;50.878;8.036;2023-08-17T09:20:47;148241.22;;;20.99;92.64
28354;BME280;15603;50.878;8.036;2023-08-17T09:23:17;148281.63;;;21.16;94.13
28354;BME280;15603;50.878;8.036;2023-08-17T09:25:47;148277.94;;;21.15;92.22
28354;BME280;15603;50.878;8.036;2023-08-17T09:28:18;148271.84;;;21.12;92.77
28354;BME280;15603;50.878;8.036;2023-08-17T09:30:57;148270.63;;;21.12;92.33
28354;BME280;15603;50.878;8.036;2023-08-17T09:33:26;148178.88;;;20.73;93.54
28354;BME280;15603;50.878;8.036;2023-08-17T09:35:55;148275.53;;;21.14;90.62
28354;BME280;15603;50.878;8.036;2023-08-17T09:38:26;148150.72;;;20.62;93.37
28354;BME280;15603;50.878;8.036;2023-08-17T09:40:54;148080.97;;;20.32;94.93
28354;BME280;15603;50.878;8.036;2023-08-17T09:43:22;148187.44;;;20.77;95.07
28354;BME280;15603;50.878;8.036;2023-08-17T09:45:49;148167.81;;;20.69;95.22
28354;BME280;15603;50.878;8.036;2023-08-17T09:48:18;148166.63;;;20.68;93.59
28354;BME280;15603;50.878;8.036;2023-08-17T09:50:47;148192.31;;;20.79;93.98
28354;BME280;15603;50.878;8.036;2023-08-17T09:53:17;148231.44;;;20.95;92.15
28354;BME280;15603;50.878;8.036;2023-08-17T09:55:46;148270.63;;;21.12;90.64
28354;BME280;15603;50.878;8.036;2023-08-17T09:58:14;148337.91;;;21.40;92.41
28354;BME280;15603;50.878;8.036;2023-08-17T10:00:46;148395.50;;;21.64;90.36
28354;BME280;15603;50.878;8.036;2023-08-17T10:03:19;148349.00;;;21.45;90.99
28354;BME280;15603;50.878;8.036;2023-08-17T10:06:05;148299.97;;;21.24;90.13
28354;BME280;15603;50.878;8.036;2023-08-17T10:08:39;148388.16;;;21.61;87.99
28354;BME280;15603;50.878;8.036;2023-08-17T10:11:09;148375.94;;;21.56;88.55
28354;BME280;15603;50.878;8.036;2023-08-17T10:13:57;148400.41;;;21.66;87.38
28354;BME280;15603;50.878;8.036;2023-08-17T10:16:35;148410.19;;;21.70;87.38
28354;BME280;15603;50.878;8.036;2023-08-17T10:19:49;148476.31;;;21.98;86.13
28354;BME280;15603;50.878;8.036;2023-08-17T10:22:33;148388.16;;;21.61;85.78
28354;BME280;15603;50.878;8.036;2023-08-17T10:25:05;148328.13;;;21.36;87.57
28354;BME280;15603;50.878;8.036;2023-08-17T10:27:34;148326.91;;;21.35;92.35
28354;BME280;15603;50.878;8.036;2023-08-17T10:30:02;148320.81;;;21.33;93.77
28354;BME280;15603;50.878;8.036;2023-08-17T10:32:34;148366.16;;;21.52;91.93
28354;BME280;15603;50.878;8.036;2023-08-17T10:35:02;148364.88;;;21.51;89.11
28354;BME280;15603;50.878;8.036;2023-08-17T10:37:30;148384.50;;;21.60;88.73
28354;BME280;15603;50.878;8.036;2023-08-17T10:39:58;148326.91;;;21.35;89.03
28354;BME280;15603;50.878;8.036;2023-08-17T10:42:32;148314.66;;;21.30;90.72
28354;BME280;15603;50.878;8.036;2023-08-17T10:45:00;148258.38;;;21.07;93.32
28354;BME280;15603;50.878;8.036;2023-08-17T10:47:32;148361.25;;;21.50;92.00
28354;BME280;15603;50.878;8.036;2023-08-17T10:50:22;148467.75;;;21.94;90.31
28354;BME280;15603;50.878;8.036;2023-08-17T10:52:50;148543.69;;;22.26;87.19
28354;BME280;15603;50.878;8.036;2023-08-17T10:55:35;148527.75;;;22.20;85.75
28354;BME280;15603;50.878;8.036;2023-08-17T10:58:03;148639.22;;;22.66;88.19
28354;BME280;15603;50.878;8.036;2023-08-17T11:00:34;148667.38;;;22.78;85.08
28354;BME280;15603;50.878;8.036;2023-08-17T11:03:07;148476.31;;;21.98;82.12
28354;BME280;15603;50.878;8.036;2023-08-17T11:05:40;148555.94;;;22.31;82.77
28354;BME280;15603;50.878;8.036;2023-08-17T11:08:12;148608.59;;;22.53;81.92
28354;BME280;15603;50.878;8.036;2023-08-17T11:11:05;148613.47;;;22.55;81.52
28354;BME280;15603;50.878;8.036;2023-08-17T11:13:34;148647.78;;;22.70;81.54
28354;BME280;15603;50.878;8.036;2023-08-17T11:16:03;148647.78;;;22.70;81.82
28354;BME280;15603;50.878;8.036;2023-08-17T11:18:32;148647.78;;;22.70;80.44
28354;BME280;15603;50.878;8.036;2023-08-17T11:21:01;148596.38;;;22.48;82.74
28354;BME280;15603;50.878;8.036;2023-08-17T11:23:34;148591.47;;;22.46;81.85
28354;BME280;15603;50.878;8.036;2023-08-17T11:26:01;148702.91;;;22.93;85.11
28354;BME280;15603;50.878;8.036;2023-08-17T11:28:32;148732.34;;;23.05;81.13
28354;BME280;15603;50.878;8.036;2023-08-17T11:31:10;148722.50;;;23.01;82.15
28354;BME280;15603;50.878;8.036;2023-08-17T11:33:38;148883.06;;;23.68;78.63
28354;BME280;15603;50.878;8.036;2023-08-17T11:36:07;148975.03;;;24.07;76.43
28354;BME280;15603;50.878;8.036;2023-08-17T11:38:37;149052.28;;;24.39;74.08
28354;BME280;15603;50.878;8.036;2023-08-17T11:41:07;148939.47;;;23.92;72.84
28354;BME280;15603;50.878;8.036;2023-08-17T11:43:37;148968.94;;;24.04;75.03
28354;BME280;15603;50.878;8.036;2023-08-17T11:46:04;148846.31;;;23.53;77.51
28354;BME280;15603;50.878;8.036;2023-08-17T11:48:32;148901.44;;;23.76;76.29
28354;BME280;15603;50.878;8.036;2023-08-17T11:51:03;148937.06;;;23.91;76.09
28354;BME280;15603;50.878;8.036;2023-08-17T11:53:37;149022.88;;;24.27;74.98
28354;BME280;15603;50.878;8.036;2023-08-17T11:56:08;148858.56;;;23.58;73.27
28354;BME280;15603;50.878;8.036;2023-08-17T11:58:41;148959.13;;;24.00;74.86
28354;BME280;15603;50.878;8.036;2023-08-17T12:01:09;148932.16;;;23.89;73.69
28354;BME280;15603;50.878;8.036;2023-08-17T12:03:42;148986.09;;;24.12;77.39
28354;BME280;15603;50.878;8.036;2023-08-17T12:06:10;149049.81;;;24.38;73.83
28354;BME280;15603;50.878;8.036;2023-08-17T12:08:47;149130.78;;;24.72;74.83
28354;BME280;15603;50.878;8.036;2023-08-17T12:11:16;149165.09;;;24.86;75.46
28354;BME280;15603;50.878;8.036;2023-08-17T12:13:50;148968.94;;;24.04;72.82
28354;BME280;15603;50.878;8.036;2023-08-17T12:16:22;148983.63;;;24.10;72.19
28354;BME280;15603;50.878;8.036;2023-08-17T12:18:53;148937.06;;;23.91;75.14
28354;BME280;15603;50.878;8.036;2023-08-17T12:21:21;148793.63;;;23.31;78.64
28354;BME280;15603;50.878;8.036;2023-08-17T12:23:49;148742.13;;;23.09;77.18
28354;BME280;15603;50.878;8.036;2023-08-17T12:26:20;148732.34;;;23.05;81.10
28354;BME280;15603;50.878;8.036;2023-08-17T12:28:47;148745.81;;;23.11;79.20
28354;BME280;15603;50.878;8.036;2023-08-17T12:31:21;148647.78;;;22.70;80.81
28354;BME280;15603;50.878;8.036;2023-08-17T12:33:50;148667.38;;;22.78;81.87
28354;BME280;15603;50.878;8.036;2023-08-17T12:36:17;148669.84;;;22.79;83.01
28354;BME280;15603;50.878;8.036;2023-08-17T12:38:45;148664.97;;;22.77;81.54
28354;BME280;15603;50.878;8.036;2023-08-17T12:41:14;148684.53;;;22.85;81.05
28354;BME280;15603;50.878;8.036;2023-08-17T12:43:41;148748.28;;;23.12;81.37
28354;BME280;15603;50.878;8.036;2023-08-17T12:46:09;148706.59;;;22.94;79.91
28354;BME280;15603;50.878;8.036;2023-08-17T12:48:38;148780.16;;;23.25;84.93
28354;BME280;15603;50.878;8.036;2023-08-17T12:51:05;148885.53;;;23.69;77.67
28354;BME280;15603;50.878;8.036;2023-08-17T12:53:32;148812.00;;;23.39;76.40
28354;BME280;15603;50.878;8.036;2023-08-17T12:55:59;148956.66;;;23.99;75.07
28354;BME280;15603;50.878;8.036;2023-08-17T12:58:26;148959.13;;;24.00;75.54